Innisfail, Australia
Current Conditions -  °F | °C
As of 7:00 AM on Saturday 20 Dec 2014 (Local Time) from YBCS Reporting Station
Broken Clouds Broken Clouds  
Wind Chill: 81°   Ceiling: 11000
Heat Index: 85°   Visibility: 6mi
Dew Point: 72°   Wind: 5mph
Humidity: 74%   Direction: 80°E
Pressure: 29.85"   Gusts: NA
Location:  17.52°S, 146.03°E
Report Text: YBCS 192100Z 08004KT 9999 FEW027 BKN110 27/22 Q1011
Loading
Personal Weather Stations






























Interactive Weather Map New forecast layout! Learn more

10-Day Weather Forecast

Advertisements
Track Severe Weather on mobile